createdAt,value
2023-01-29T00:00:48.067Z,2.73
2023-01-29T00:01:48.157Z,2.73
2023-01-29T00:02:48.140Z,2.76
2023-01-29T00:03:48.108Z,2.75
2023-01-29T00:04:48.120Z,2.78
2023-01-29T00:05:48.128Z,2.76
2023-01-29T00:06:48.137Z,2.77
2023-01-29T00:07:48.146Z,2.78
2023-01-29T00:08:48.160Z,2.79
2023-01-29T00:09:48.168Z,2.77
2023-01-29T00:10:48.177Z,2.81
2023-01-29T00:11:48.205Z,2.79
2023-01-29T00:12:48.194Z,2.81
2023-01-29T00:13:48.199Z,2.77
2023-01-29T00:14:48.226Z,2.78
2023-01-29T00:15:48.225Z,2.79
2023-01-29T00:16:48.265Z,2.82
2023-01-29T00:17:48.260Z,2.81
2023-01-29T00:18:48.261Z,2.77
2023-01-29T00:19:48.287Z,2.77
2023-01-29T00:20:48.275Z,2.80
2023-01-29T00:21:48.293Z,2.77
2023-01-29T00:22:48.324Z,2.79
2023-01-29T00:23:48.309Z,2.77
2023-01-29T00:24:48.321Z,2.80
2023-01-29T00:25:48.334Z,2.80
2023-01-29T00:26:48.347Z,2.79
2023-01-29T00:27:48.372Z,2.79
2023-01-29T00:28:48.376Z,2.83
2023-01-29T00:29:48.386Z,2.82
2023-01-29T00:30:48.393Z,2.82
2023-01-29T00:31:48.500Z,2.83
2023-01-29T00:32:48.417Z,2.81
2023-01-29T00:33:48.458Z,2.77
2023-01-29T00:34:48.444Z,2.77
2023-01-29T00:35:48.455Z,2.76
2023-01-29T00:36:48.458Z,2.73
2023-01-29T00:37:48.468Z,2.76
2023-01-29T00:38:48.476Z,2.77
2023-01-29T00:39:48.553Z,2.77
2023-01-29T00:40:48.492Z,2.77
2023-01-29T00:41:48.503Z,2.76
2023-01-29T00:42:48.519Z,2.79
2023-01-29T00:43:48.527Z,2.80
2023-01-29T00:44:48.541Z,2.83
2023-01-29T00:45:48.553Z,2.86
2023-01-29T00:46:48.591Z,2.83
2023-01-29T00:47:48.575Z,2.84
2023-01-29T00:48:48.585Z,2.85
2023-01-29T00:49:48.589Z,2.85
2023-01-29T00:50:48.601Z,2.82
2023-01-29T00:51:48.652Z,2.83
2023-01-29T00:52:48.628Z,2.85
2023-01-29T00:53:48.638Z,2.80
2023-01-29T00:54:48.643Z,2.80
2023-01-29T00:55:48.658Z,2.74
2023-01-29T00:56:48.663Z,2.68
2023-01-29T00:57:48.683Z,2.61
2023-01-29T00:58:48.699Z,2.55
2023-01-29T00:59:48.703Z,2.48
2023-01-29T01:00:48.746Z,2.46
2023-01-29T01:01:48.756Z,2.45
2023-01-29T01:02:48.734Z,2.43
2023-01-29T01:03:48.739Z,2.43
2023-01-29T01:04:48.752Z,2.46
2023-01-29T01:05:48.758Z,2.48
2023-01-29T01:06:48.756Z,2.53
2023-01-29T01:07:49.019Z,2.58
2023-01-29T01:08:48.774Z,2.53
2023-01-29T01:09:48.789Z,2.51
2023-01-29T01:10:48.803Z,2.47
2023-01-29T01:11:48.810Z,2.47
2023-01-29T01:12:48.815Z,2.48
2023-01-29T01:13:48.819Z,2.49
2023-01-29T01:14:48.834Z,2.51
2023-01-29T01:15:48.850Z,2.53
2023-01-29T01:16:48.860Z,2.60
2023-01-29T01:17:48.926Z,2.63
2023-01-29T01:18:48.885Z,2.65
2023-01-29T01:19:48.894Z,2.64
2023-01-29T01:37:49.304Z,2.45
2023-01-29T01:38:49.098Z,2.48
2023-01-29T01:39:49.119Z,2.48
2023-01-29T01:40:49.128Z,2.50
2023-01-29T01:41:49.143Z,2.53
2023-01-29T01:42:49.155Z,2.58
2023-01-29T01:43:49.156Z,2.62
2023-01-29T01:44:49.176Z,2.65
2023-01-29T01:45:49.222Z,2.67
2023-01-29T01:46:49.205Z,2.69
2023-01-29T01:47:49.212Z,2.71
2023-01-29T01:48:49.221Z,2.72
2023-01-29T01:49:49.231Z,2.69
2023-01-29T01:50:49.239Z,2.69
2023-01-29T01:51:49.244Z,2.72
2023-01-29T01:52:49.258Z,2.75
2023-01-29T01:53:49.267Z,2.78
2023-01-29T01:54:49.276Z,2.81
2023-01-29T01:55:49.292Z,2.77
2023-01-29T01:56:49.302Z,2.76
2023-01-29T01:57:49.311Z,2.77
2023-01-29T01:58:49.320Z,2.77
2023-01-29T01:59:49.336Z,2.75
2023-01-29T02:00:49.377Z,2.75
2023-01-29T02:01:49.404Z,2.73
2023-01-29T02:02:49.372Z,2.72
2023-01-29T02:03:49.383Z,2.72
2023-01-29T02:04:49.390Z,2.70
2023-01-29T02:05:49.408Z,2.69
2023-01-29T02:06:49.417Z,2.70
2023-01-29T02:07:49.425Z,2.73
2023-01-29T02:08:49.429Z,2.74
2023-01-29T02:09:49.442Z,2.71
2023-01-29T02:10:49.456Z,2.66
2023-01-29T02:11:49.465Z,2.64
2023-01-29T02:12:49.469Z,2.65
2023-01-29T02:13:49.484Z,2.67
2023-01-29T02:14:49.493Z,2.64
2023-01-29T02:15:49.511Z,2.66
2023-01-29T02:16:49.517Z,2.64
2023-01-29T02:17:49.624Z,2.66
2023-01-29T02:18:49.534Z,2.66
2023-01-29T02:19:49.559Z,2.66
2023-01-29T02:20:49.564Z,2.71
2023-01-29T02:21:49.577Z,2.77
2023-01-29T02:22:49.580Z,2.79
2023-01-29T02:23:49.612Z,2.81
2023-01-29T02:24:49.608Z,2.83
2023-01-29T02:25:49.627Z,2.84
2023-01-29T02:26:49.634Z,2.85
2023-01-29T02:27:49.652Z,2.80
2023-01-29T02:28:49.652Z,2.77
2023-01-29T02:29:49.672Z,2.75
2023-01-29T02:30:49.700Z,2.75
2023-01-29T02:31:49.715Z,2.74
2023-01-29T02:32:49.692Z,2.76
2023-01-29T02:33:49.706Z,2.76
2023-01-29T02:34:49.708Z,2.78
2023-01-29T02:35:49.716Z,2.77
2023-01-29T02:36:49.724Z,2.73
2023-01-29T02:37:49.731Z,2.72
2023-01-29T02:38:49.742Z,2.68
2023-01-29T02:39:49.758Z,2.67
2023-01-29T02:40:49.772Z,2.67
2023-01-29T02:41:49.782Z,2.67
2023-01-29T02:42:49.793Z,2.66
2023-01-29T02:43:49.811Z,2.70
2023-01-29T02:44:49.821Z,2.70
2023-01-29T02:45:49.889Z,2.74
2023-01-29T02:46:49.833Z,2.75
2023-01-29T02:47:49.839Z,2.77
2023-01-29T02:48:49.859Z,2.79
2023-01-29T02:49:49.879Z,2.76
2023-01-29T02:50:49.891Z,2.75
2023-01-29T02:51:49.915Z,2.76
2023-01-29T02:52:49.921Z,2.77
2023-01-29T02:53:49.928Z,2.79
2023-01-29T02:54:49.933Z,2.82
2023-01-29T02:55:49.956Z,2.84
2023-01-29T02:56:49.964Z,2.82
2023-01-29T02:57:49.977Z,2.82
2023-01-29T02:58:49.983Z,2.82
2023-01-29T02:59:49.995Z,2.84
2023-01-29T03:00:50.037Z,2.82
2023-01-29T03:01:50.015Z,2.81
2023-01-29T03:02:50.025Z,2.81
2023-01-29T03:03:50.036Z,2.85
2023-01-29T03:04:50.045Z,2.85
2023-01-29T03:05:50.060Z,2.83
2023-01-29T03:06:50.068Z,2.86
2023-01-29T03:07:50.075Z,2.87
2023-01-29T03:08:50.150Z,2.90
2023-01-29T03:09:50.095Z,2.91
2023-01-29T03:10:50.104Z,2.93
2023-01-29T03:11:50.118Z,2.94
2023-01-29T03:12:50.136Z,2.93
2023-01-29T03:13:50.140Z,2.94
2023-01-29T03:14:50.147Z,2.96
2023-01-29T03:15:50.157Z,2.97
2023-01-29T03:16:50.346Z,2.98
2023-01-29T03:17:50.175Z,2.97
2023-01-29T03:18:50.184Z,3.01
2023-01-29T03:19:50.214Z,3.01
2023-01-29T03:20:50.225Z,3.04
2023-01-29T03:21:50.238Z,3.04
2023-01-29T03:22:50.247Z,3.03
2023-01-29T03:23:50.255Z,3.01
2023-01-29T03:24:50.271Z,3.05
2023-01-29T03:25:50.281Z,3.02
2023-01-29T03:26:50.296Z,3.04
2023-01-29T03:27:50.312Z,3.02
2023-01-29T03:28:50.314Z,2.97
2023-01-29T03:29:50.322Z,2.97
2023-01-29T03:30:50.350Z,2.97
2023-01-29T03:31:50.381Z,2.95
2023-01-29T03:32:50.374Z,2.93
2023-01-29T03:33:50.386Z,2.92
2023-01-29T03:34:50.390Z,2.94
2023-01-29T03:35:50.401Z,2.93
2023-01-29T03:36:50.414Z,2.97
2023-01-29T03:37:50.432Z,3.01
2023-01-29T03:38:50.435Z,3.06
2023-01-29T03:39:50.448Z,3.08
2023-01-29T03:40:50.456Z,3.09
2023-01-29T03:41:50.465Z,3.10
2023-01-29T03:42:50.483Z,3.13
2023-01-29T03:43:50.495Z,3.14
2023-01-29T03:44:50.497Z,3.12
2023-01-29T03:45:50.558Z,3.10
2023-01-29T03:46:50.512Z,3.12
2023-01-29T03:47:50.534Z,3.08
2023-01-29T03:48:50.544Z,3.07
2023-01-29T03:49:50.555Z,3.05
2023-01-29T03:50:50.578Z,3.08
2023-01-29T03:51:50.586Z,3.09
2023-01-29T03:52:50.592Z,3.08
2023-01-29T03:53:50.600Z,3.10
2023-01-29T03:54:50.612Z,3.10
2023-01-29T03:55:50.628Z,3.09
2023-01-29T03:56:50.635Z,3.06
2023-01-29T03:57:50.670Z,3.08
2023-01-29T03:58:50.653Z,3.08
2023-01-29T03:59:50.667Z,3.06
2023-01-29T04:00:50.676Z,3.04
2023-01-29T04:01:50.708Z,3.03
2023-01-29T04:02:50.693Z,3.03
2023-01-29T04:03:50.737Z,3.01
2023-01-29T04:04:50.714Z,2.97
2023-01-29T04:05:50.719Z,2.99
2023-01-29T04:06:50.736Z,2.99
2023-01-29T04:07:50.745Z,2.96
2023-01-29T04:08:50.756Z,2.95
2023-01-29T04:09:50.792Z,2.93
2023-01-29T04:10:50.790Z,2.92
2023-01-29T04:11:50.801Z,2.91
2023-01-29T04:12:50.811Z,2.93
2023-01-29T04:13:50.813Z,2.93
2023-01-29T04:14:50.832Z,2.93
2023-01-29T04:15:50.842Z,2.95
2023-01-29T04:16:50.859Z,2.98
2023-01-29T04:17:50.869Z,3.00
2023-01-29T04:18:50.899Z,2.99
2023-01-29T04:19:50.902Z,2.95
2023-01-29T04:20:50.912Z,2.93
2023-01-29T04:21:50.922Z,2.94
2023-01-29T04:22:50.941Z,2.93
2023-01-29T04:23:50.953Z,2.96
2023-01-29T04:24:50.981Z,2.97
2023-01-29T04:25:50.983Z,2.91
2023-01-29T04:26:50.999Z,2.93
2023-01-29T04:27:51.009Z,2.92
2023-01-29T04:28:51.021Z,2.90
2023-01-29T04:29:51.031Z,2.93
2023-01-29T04:30:51.131Z,2.94
2023-01-29T04:31:51.078Z,2.97
2023-01-29T04:32:51.069Z,2.99
2023-01-29T04:33:51.079Z,2.99
2023-01-29T04:34:51.095Z,3.02
2023-01-29T04:35:51.111Z,2.96
2023-01-29T04:36:51.114Z,2.92
2023-01-29T04:37:51.126Z,2.90
2023-01-29T04:38:51.132Z,2.88
2023-01-29T04:39:51.152Z,2.85
2023-01-29T04:40:51.173Z,2.81
2023-01-29T04:41:51.167Z,2.79
2023-01-29T04:42:51.187Z,2.81
2023-01-29T04:43:51.198Z,2.85
2023-01-29T04:44:51.202Z,2.88
2023-01-29T04:45:51.216Z,2.85
2023-01-29T04:46:51.228Z,2.86
2023-01-29T04:47:51.241Z,2.89
2023-01-29T04:48:51.255Z,2.89
2023-01-29T04:49:51.258Z,2.88
2023-01-29T04:50:51.267Z,2.85
2023-01-29T04:51:51.284Z,2.84
2023-01-29T04:52:51.289Z,2.81
2023-01-29T04:53:51.306Z,2.82
2023-01-29T04:54:51.329Z,2.84
2023-01-29T04:55:51.327Z,2.84
2023-01-29T04:56:51.347Z,2.80
2023-01-29T04:57:51.351Z,2.80
2023-01-29T04:58:51.363Z,2.81
2023-01-29T04:59:51.373Z,2.83
2023-01-29T05:00:51.383Z,2.87
2023-01-29T05:01:51.431Z,2.85
2023-01-29T05:02:51.444Z,2.83
2023-01-29T05:03:51.418Z,2.77
2023-01-29T05:04:51.430Z,2.78
2023-01-29T05:05:51.449Z,2.80
2023-01-29T05:06:51.463Z,2.84
2023-01-29T05:07:51.481Z,2.83
2023-01-29T05:08:51.488Z,2.84
2023-01-29T05:09:51.499Z,2.86
2023-01-29T05:10:51.517Z,2.82
2023-01-29T05:11:51.529Z,2.80
2023-01-29T05:12:51.549Z,2.81
2023-01-29T05:13:51.557Z,2.80
2023-01-29T05:14:51.568Z,2.82
2023-01-29T05:15:51.607Z,2.75
2023-01-29T05:16:51.592Z,2.70
2023-01-29T05:17:51.604Z,2.68
2023-01-29T05:18:51.610Z,2.65
2023-01-29T05:19:51.619Z,2.66
2023-01-29T05:20:51.627Z,2.68
2023-01-29T05:21:51.635Z,2.69
2023-01-29T05:22:51.649Z,2.68
2023-01-29T05:23:51.659Z,2.65
2023-01-29T05:24:51.669Z,2.63
2023-01-29T05:25:51.688Z,2.62
2023-01-29T05:26:51.696Z,2.59
2023-01-29T05:27:51.709Z,2.61
2023-01-29T05:28:51.727Z,2.65
2023-01-29T05:29:51.741Z,2.66
2023-01-29T05:30:51.814Z,2.68
2023-01-29T05:31:51.851Z,2.61
2023-01-29T05:32:51.774Z,2.59
2023-01-29T05:33:51.770Z,2.58
2023-01-29T05:34:51.792Z,2.57
2023-01-29T05:35:51.806Z,2.57
2023-01-29T05:36:51.809Z,2.62
2023-01-29T05:37:51.820Z,2.61
2023-01-29T05:38:51.829Z,2.63
2023-01-29T05:39:51.837Z,2.63
2023-01-29T05:40:51.857Z,2.63
2023-01-29T05:41:51.864Z,2.62
2023-01-29T05:42:51.870Z,2.63
2023-01-29T05:43:51.882Z,2.64
2023-01-29T05:44:51.897Z,2.67
2023-01-29T05:45:51.898Z,2.65
2023-01-29T05:46:52.019Z,2.62
2023-01-29T05:47:51.926Z,2.60
2023-01-29T05:48:51.941Z,2.61
2023-01-29T05:49:51.955Z,2.65
2023-01-29T05:50:51.971Z,2.65
2023-01-29T05:51:51.975Z,2.67
2023-01-29T05:52:51.978Z,2.69
2023-01-29T05:53:51.988Z,2.70
2023-01-29T05:54:52.011Z,2.70
2023-01-29T05:55:52.016Z,2.72
2023-01-29T05:56:52.033Z,2.74
2023-01-29T05:57:52.047Z,2.74
2023-01-29T05:58:52.067Z,2.71
2023-01-29T05:59:52.080Z,2.66
2023-01-29T06:00:52.080Z,2.62
2023-01-29T06:01:52.164Z,2.59
2023-01-29T06:02:52.119Z,2.61
2023-01-29T06:03:52.130Z,2.55
2023-01-29T06:04:52.123Z,2.53
2023-01-29T06:05:52.140Z,2.56
2023-01-29T06:06:52.154Z,2.60
2023-01-29T06:07:52.163Z,2.63
2023-01-29T06:08:52.173Z,2.66
2023-01-29T06:09:52.202Z,2.65
2023-01-29T06:10:52.191Z,2.64
2023-01-29T06:11:52.197Z,2.64
2023-01-29T06:12:52.211Z,2.63
2023-01-29T06:13:52.233Z,2.61
2023-01-29T06:14:52.232Z,2.63
2023-01-29T06:15:52.244Z,2.63
2023-01-29T06:16:52.261Z,2.66
2023-01-29T06:17:52.271Z,2.68
2023-01-29T06:18:52.289Z,2.69
2023-01-29T06:19:52.296Z,2.64
2023-01-29T06:20:52.302Z,2.62
2023-01-29T06:21:52.316Z,2.61
2023-01-29T06:22:52.333Z,2.59
2023-01-29T06:23:52.348Z,2.51
2023-01-29T06:24:52.365Z,2.51
2023-01-29T06:25:52.369Z,2.51
2023-01-29T06:26:52.376Z,2.51
2023-01-29T06:27:52.390Z,2.54
2023-01-29T06:28:52.393Z,2.55
2023-01-29T06:29:52.398Z,2.55
2023-01-29T06:30:52.459Z,2.57
2023-01-29T06:31:52.532Z,2.60
2023-01-29T06:32:52.440Z,2.60
2023-01-29T06:33:52.453Z,2.62
2023-01-29T06:34:52.460Z,2.63
2023-01-29T06:35:52.487Z,2.62
2023-01-29T06:36:52.506Z,2.66
2023-01-29T06:37:52.503Z,2.67
2023-01-29T06:38:52.518Z,2.69
2023-01-29T06:39:52.531Z,2.69
2023-01-29T06:40:52.541Z,2.68
2023-01-29T06:41:52.549Z,2.68
2023-01-29T06:42:52.566Z,2.67
2023-01-29T06:43:52.578Z,2.70
2023-01-29T06:44:52.577Z,2.67
2023-01-29T06:45:52.632Z,2.67
2023-01-29T06:46:52.611Z,2.68
2023-01-29T06:47:52.630Z,2.73
2023-01-29T06:48:52.630Z,2.73
2023-01-29T06:49:52.636Z,2.74
2023-01-29T06:50:52.661Z,2.74
2023-01-29T06:51:52.655Z,2.73
2023-01-29T06:52:52.667Z,2.72
2023-01-29T06:53:52.682Z,2.72
2023-01-29T06:54:53.501Z,2.72
2023-01-29T06:55:52.699Z,2.70
2023-01-29T06:56:52.723Z,2.69
2023-01-29T06:57:52.731Z,2.69
2023-01-29T06:58:52.739Z,2.69
2023-01-29T06:59:52.747Z,2.70
2023-01-29T07:00:52.797Z,2.70
2023-01-29T07:01:52.819Z,2.70
2023-01-29T07:02:52.771Z,2.72
2023-01-29T07:03:52.793Z,2.72
2023-01-29T07:04:52.808Z,2.73
2023-01-29T07:05:52.823Z,2.72
2023-01-29T07:06:52.823Z,2.70
2023-01-29T07:07:52.829Z,2.70
2023-01-29T07:08:52.837Z,2.72
2023-01-29T07:09:52.853Z,2.74
2023-01-29T07:10:52.862Z,2.76
2023-01-29T07:11:52.883Z,2.79
2023-01-29T07:12:52.881Z,2.76
2023-01-29T07:13:52.903Z,2.75
2023-01-29T07:14:52.913Z,2.74
2023-01-29T07:15:52.920Z,2.74
2023-01-29T07:16:52.926Z,2.75
2023-01-29T07:17:52.948Z,2.76
2023-01-29T07:18:52.953Z,2.77
2023-01-29T07:19:52.967Z,2.76
2023-01-29T07:20:52.977Z,2.78
2023-01-29T07:21:52.983Z,2.79
2023-01-29T07:22:52.996Z,2.77
2023-01-29T07:23:52.999Z,2.79
2023-01-29T07:24:53.002Z,2.73
2023-01-29T07:25:53.034Z,2.70
2023-01-29T07:26:53.044Z,2.70
2023-01-29T07:27:53.061Z,2.71
2023-01-29T07:28:53.074Z,2.73
2023-01-29T07:29:53.097Z,2.74
2023-01-29T07:30:53.118Z,2.76
2023-01-29T07:31:53.258Z,2.80
2023-01-29T07:32:53.138Z,2.83
2023-01-29T07:33:53.157Z,2.83
2023-01-29T07:34:53.160Z,2.84
2023-01-29T07:35:53.181Z,2.86
2023-01-29T07:36:53.191Z,2.83
2023-01-29T07:37:53.209Z,2.84
2023-01-29T07:38:53.215Z,2.80
2023-01-29T07:39:53.228Z,2.77
2023-01-29T07:40:53.238Z,2.79
2023-01-29T07:41:53.258Z,2.80
2023-01-29T07:42:53.271Z,2.83
2023-01-29T07:43:53.308Z,2.85
2023-01-29T07:44:53.289Z,2.88
2023-01-29T07:45:53.379Z,2.85
2023-01-29T07:46:53.303Z,2.85
2023-01-29T07:47:53.323Z,2.86
2023-01-29T07:48:53.338Z,2.87
2023-01-29T07:49:53.339Z,2.88
2023-01-29T07:50:53.350Z,2.87
2023-01-29T07:51:53.383Z,2.86
2023-01-29T07:52:53.379Z,2.86
2023-01-29T07:53:53.425Z,2.85
2023-01-29T07:54:53.410Z,2.84
2023-01-29T07:56:09.257Z,2.85
2023-01-29T07:56:53.424Z,2.80
2023-01-29T07:57:53.433Z,2.77
2023-01-29T07:58:53.444Z,2.77
2023-01-29T07:59:53.456Z,2.78
2023-01-29T08:00:53.509Z,2.79
2023-01-29T08:01:53.533Z,2.81
2023-01-29T08:02:53.516Z,2.84
2023-01-29T08:03:53.521Z,2.87
2023-01-29T08:04:53.537Z,2.92
2023-01-29T08:05:53.554Z,2.94
2023-01-29T08:06:53.561Z,2.97
2023-01-29T08:08:05.520Z,2.99
2023-01-29T08:08:53.587Z,2.99
2023-01-29T08:09:53.600Z,3.03
2023-01-29T08:10:53.606Z,3.05
2023-01-29T08:11:53.613Z,3.04
2023-01-29T08:12:53.621Z,3.06
2023-01-29T08:13:53.641Z,3.09
2023-01-29T08:14:53.647Z,3.08
2023-01-29T08:15:53.643Z,3.09
2023-01-29T08:16:53.719Z,3.02
2023-01-29T08:17:57.910Z,3.02
2023-01-29T08:18:53.676Z,3.02
2023-01-29T08:19:53.690Z,3.05
2023-01-29T08:20:53.705Z,3.09
2023-01-29T08:21:53.745Z,3.14
2023-01-29T08:22:53.740Z,3.17
2023-01-29T08:23:53.758Z,3.21
2023-01-29T08:25:06.201Z,3.23
2023-01-29T08:25:53.793Z,3.24
2023-01-29T08:26:53.779Z,3.22
2023-01-29T08:27:53.783Z,3.23
2023-01-29T08:28:53.795Z,3.23
2023-01-29T08:29:53.816Z,3.24
2023-01-29T08:30:53.880Z,3.25
2023-01-29T08:31:53.855Z,3.28
2023-01-29T08:32:53.850Z,3.24
2023-01-29T08:33:53.862Z,3.26
2023-01-29T08:34:53.870Z,3.26
2023-01-29T08:35:53.890Z,3.24
2023-01-29T08:36:53.909Z,3.28
2023-01-29T08:37:53.903Z,3.30
2023-01-29T08:38:53.913Z,3.35
2023-01-29T08:39:53.922Z,3.39
2023-01-29T08:40:53.934Z,3.39
2023-01-29T08:41:53.954Z,3.42
2023-01-29T08:42:53.961Z,3.44
2023-01-29T08:43:53.967Z,3.42
2023-01-29T08:44:53.977Z,3.36
2023-01-29T08:45:54.018Z,3.29
2023-01-29T08:46:54.008Z,3.29
2023-01-29T08:47:54.016Z,3.29
2023-01-29T08:48:54.020Z,3.31
2023-01-29T08:49:54.030Z,3.30
2023-01-29T08:50:54.040Z,3.32
2023-01-29T08:51:54.067Z,3.32
2023-01-29T08:52:54.062Z,3.30
2023-01-29T08:53:54.074Z,3.29
2023-01-29T08:54:54.083Z,3.27
2023-01-29T08:55:54.084Z,3.23
2023-01-29T08:56:54.091Z,3.23
2023-01-29T08:57:54.114Z,3.27
2023-01-29T08:58:54.130Z,3.34
2023-01-29T08:59:54.140Z,3.40
2023-01-29T09:00:54.203Z,3.44
2023-01-29T09:01:54.168Z,3.48
2023-01-29T09:02:54.182Z,3.51
2023-01-29T09:03:54.167Z,3.53
2023-01-29T09:04:54.182Z,3.55
2023-01-29T09:05:54.193Z,3.57
2023-01-29T09:06:54.203Z,3.51
2023-01-29T09:07:54.368Z,3.41
2023-01-29T09:08:54.225Z,3.39
2023-01-29T09:09:54.245Z,3.32
2023-01-29T09:10:54.252Z,3.34
2023-01-29T09:11:54.262Z,3.34
2023-01-29T09:12:54.273Z,3.33
2023-01-29T09:13:54.291Z,3.29
2023-01-29T09:14:54.305Z,3.32
2023-01-29T09:15:54.302Z,3.32
2023-01-29T09:16:54.354Z,3.32
2023-01-29T09:17:54.317Z,3.30
2023-01-29T09:18:54.335Z,3.26
2023-01-29T09:19:54.342Z,3.26
2023-01-29T09:20:54.358Z,3.24
2023-01-29T09:21:54.358Z,3.28
2023-01-29T09:22:54.363Z,3.31
2023-01-29T09:23:54.369Z,3.33
2023-01-29T09:24:54.377Z,3.33
2023-01-29T09:25:54.387Z,3.36
2023-01-29T09:26:54.394Z,3.32
2023-01-29T09:27:54.410Z,3.34
2023-01-29T09:28:54.408Z,3.32
2023-01-29T09:29:54.420Z,3.33
2023-01-29T09:30:54.600Z,3.34
2023-01-29T09:31:54.516Z,3.37
2023-01-29T09:32:54.948Z,3.40
2023-01-29T09:33:54.444Z,3.39
2023-01-29T09:34:54.454Z,3.36
2023-01-29T09:35:54.464Z,3.34
2023-01-29T09:36:54.472Z,3.37
2023-01-29T09:37:54.486Z,3.41
2023-01-29T09:38:54.490Z,3.43
2023-01-29T09:39:54.494Z,3.46
2023-01-29T09:40:54.530Z,3.51
2023-01-29T09:41:54.510Z,3.53
2023-01-29T09:42:54.522Z,3.54
2023-01-29T09:43:54.524Z,3.58
2023-01-29T09:44:54.534Z,3.61
2023-01-29T09:45:54.572Z,3.55
2023-01-29T09:46:54.545Z,3.53
2023-01-29T09:47:54.563Z,3.55
2023-01-29T09:48:54.557Z,3.53
2023-01-29T09:49:54.563Z,3.56
2023-01-29T09:50:54.571Z,3.54
2023-01-29T09:51:54.576Z,3.54
2023-01-29T09:52:54.584Z,3.53
2023-01-29T09:53:54.589Z,3.53
2023-01-29T09:54:54.596Z,3.50
2023-01-29T09:55:54.599Z,3.50
2023-01-29T09:56:54.607Z,3.50
2023-01-29T09:57:54.614Z,3.50
2023-01-29T09:58:54.617Z,3.52
2023-01-29T09:59:54.625Z,3.54
2023-01-29T10:00:54.630Z,3.56
2023-01-29T10:01:54.797Z,3.57
2023-01-29T10:02:54.646Z,3.57
2023-01-29T10:03:54.648Z,3.56
2023-01-29T10:04:54.686Z,3.58
2023-01-29T10:05:54.662Z,3.58
2023-01-29T10:06:54.668Z,3.58
2023-01-29T10:07:54.675Z,3.53
2023-01-29T10:08:54.682Z,3.51
2023-01-29T10:09:54.712Z,3.53
2023-01-29T10:10:54.694Z,3.56
2023-01-29T10:11:56.924Z,3.59
2023-01-29T10:12:54.710Z,3.61
2023-01-29T10:13:54.710Z,3.65
2023-01-29T10:14:54.738Z,3.69
2023-01-29T10:15:54.737Z,3.71
2023-01-29T10:16:54.833Z,3.74
2023-01-29T10:17:54.740Z,3.75
2023-01-29T10:18:54.741Z,3.76
2023-01-29T10:19:54.748Z,3.78
2023-01-29T10:20:54.754Z,3.80
2023-01-29T10:21:54.759Z,3.79
2023-01-29T10:22:54.763Z,3.79
2023-01-29T10:23:54.789Z,3.78
2023-01-29T10:24:54.782Z,3.80
2023-01-29T10:25:54.788Z,3.77
2023-01-29T10:26:54.789Z,3.76
2023-01-29T10:27:54.797Z,3.75
2023-01-29T10:28:54.803Z,3.76
2023-01-29T10:29:54.828Z,3.79
2023-01-29T10:30:54.941Z,3.78
2023-01-29T10:31:55.012Z,3.76
2023-01-29T10:32:54.834Z,3.76
2023-01-29T10:34:01.855Z,3.77
2023-01-29T10:34:54.846Z,3.81
2023-01-29T10:35:55.927Z,3.83
2023-01-29T10:36:54.865Z,3.83
2023-01-29T10:37:54.878Z,3.85
2023-01-29T10:38:54.882Z,3.81
2023-01-29T10:39:54.888Z,3.77
2023-01-29T10:40:54.897Z,3.73
2023-01-29T10:41:54.903Z,3.69
2023-01-29T10:42:54.911Z,3.64
2023-01-29T10:43:54.922Z,3.62
2023-01-29T10:44:54.941Z,3.58
2023-01-29T10:45:54.936Z,3.58
2023-01-29T10:46:54.967Z,3.59
2023-01-29T10:47:54.961Z,3.61
2023-01-29T10:48:54.963Z,3.55
2023-01-29T10:49:54.985Z,3.57
2023-01-29T10:50:54.984Z,3.59
2023-01-29T10:51:54.987Z,3.60
2023-01-29T10:52:57.034Z,3.58
2023-01-29T10:53:55.001Z,3.60
2023-01-29T10:54:55.022Z,3.62
2023-01-29T10:55:55.022Z,3.62
2023-01-29T10:56:55.029Z,3.62
2023-01-29T10:57:55.038Z,3.61
2023-01-29T10:58:55.046Z,3.60
2023-01-29T10:59:55.052Z,3.61
2023-01-29T11:00:55.061Z,3.59
2023-01-29T11:01:55.101Z,3.60
2023-01-29T11:02:55.156Z,3.61
2023-01-29T11:03:55.087Z,3.61
2023-01-29T11:04:55.093Z,3.61
2023-01-29T11:05:55.099Z,3.64
2023-01-29T11:06:55.109Z,3.66
2023-01-29T11:07:55.114Z,3.61
2023-01-29T11:08:55.136Z,3.62
2023-01-29T11:09:55.131Z,3.60
2023-01-29T11:10:55.148Z,3.59
2023-01-29T11:11:55.160Z,3.59
2023-01-29T11:12:55.178Z,3.59
2023-01-29T11:13:55.166Z,3.63
2023-01-29T11:14:55.170Z,3.59
2023-01-29T11:15:55.175Z,3.54
2023-01-29T11:16:55.211Z,3.49
2023-01-29T11:17:55.189Z,3.45
2023-01-29T11:18:55.196Z,3.45
2023-01-29T11:19:55.209Z,3.42
2023-01-29T11:20:55.205Z,3.42
2023-01-29T11:21:55.210Z,3.39
2023-01-29T11:22:55.217Z,3.35
2023-01-29T11:23:55.234Z,3.37
2023-01-29T11:24:55.234Z,3.41
2023-01-29T11:25:55.234Z,3.48
2023-01-29T11:26:55.238Z,3.48
2023-01-29T11:27:55.248Z,3.50
2023-01-29T11:28:55.251Z,3.55
2023-01-29T11:29:55.259Z,3.54
2023-01-29T11:30:55.407Z,3.55
2023-01-29T11:31:55.303Z,3.60
2023-01-29T11:32:55.274Z,3.65
2023-01-29T11:33:55.278Z,3.71
2023-01-29T11:34:55.288Z,3.75
2023-01-29T11:35:55.291Z,3.70
2023-01-29T11:36:55.302Z,3.66
2023-01-29T11:37:55.310Z,3.68
2023-01-29T11:38:55.319Z,3.66
2023-01-29T11:39:55.325Z,3.65
2023-01-29T11:40:55.336Z,3.60
2023-01-29T11:41:55.356Z,3.62
2023-01-29T11:42:55.356Z,3.65
2023-01-29T11:43:55.365Z,3.66
2023-01-29T11:44:55.373Z,3.65
2023-01-29T11:45:55.374Z,3.66
2023-01-29T11:46:55.380Z,3.62
2023-01-29T11:47:55.387Z,3.63
2023-01-29T11:48:59.187Z,3.63
2023-01-29T11:49:55.405Z,3.61
2023-01-29T11:50:55.430Z,3.63
2023-01-29T11:51:55.458Z,3.66
2023-01-29T11:52:55.431Z,3.66
2023-01-29T11:53:55.438Z,3.62
2023-01-29T11:54:55.475Z,3.60
2023-01-29T11:55:55.452Z,3.56
2023-01-29T11:56:55.461Z,3.55
2023-01-29T11:57:55.483Z,3.57
2023-01-29T11:58:55.591Z,3.59
2023-01-29T11:59:55.481Z,3.64
2023-01-29T12:00:55.517Z,3.70
2023-01-29T12:01:55.495Z,3.78
2023-01-29T12:02:55.502Z,3.76
2023-01-29T12:03:55.534Z,3.82
2023-01-29T12:04:55.515Z,3.84
2023-01-29T12:05:55.575Z,3.88
2023-01-29T12:06:55.523Z,3.91
2023-01-29T12:07:55.533Z,3.94
2023-01-29T12:08:55.536Z,3.99
2023-01-29T12:09:55.542Z,3.99
2023-01-29T12:10:55.549Z,4.01
2023-01-29T12:11:55.556Z,3.98
2023-01-29T12:12:55.559Z,3.95
2023-01-29T12:13:55.570Z,3.93
2023-01-29T12:14:55.573Z,3.97
2023-01-29T12:15:55.595Z,4.00
2023-01-29T12:16:55.590Z,4.05
2023-01-29T12:17:55.592Z,4.08
2023-01-29T12:18:55.597Z,4.13
2023-01-29T12:19:55.603Z,4.16
2023-01-29T12:20:55.609Z,4.19
2023-01-29T12:21:55.620Z,4.13
2023-01-29T12:22:55.621Z,4.11
2023-01-29T12:23:55.631Z,4.11
2023-01-29T12:24:55.642Z,4.08
2023-01-29T12:25:55.638Z,4.04
2023-01-29T12:26:55.644Z,4.02
2023-01-29T12:27:55.653Z,3.92
2023-01-29T12:28:55.657Z,3.87
2023-01-29T12:29:55.662Z,3.84
2023-01-29T12:30:55.685Z,3.84
2023-01-29T12:31:55.679Z,3.84
2023-01-29T12:32:55.680Z,3.88
2023-01-29T12:33:55.689Z,3.82
2023-01-29T12:34:55.694Z,3.81
2023-01-29T12:35:55.700Z,3.84
2023-01-29T12:36:55.707Z,3.87
2023-01-29T12:37:55.717Z,3.90
2023-01-29T12:38:55.717Z,3.93
2023-01-29T12:39:55.724Z,3.95
2023-01-29T12:40:55.735Z,3.99
2023-01-29T12:41:55.737Z,3.97
2023-01-29T12:42:55.742Z,4.02
2023-01-29T12:43:55.750Z,3.99
2023-01-29T12:44:55.759Z,3.96
2023-01-29T12:45:55.762Z,3.90
2023-01-29T12:46:55.821Z,3.90
2023-01-29T12:47:55.775Z,3.93
2023-01-29T12:48:55.780Z,3.95
2023-01-29T12:49:55.786Z,3.99
2023-01-29T12:50:55.796Z,3.98
2023-01-29T12:51:55.816Z,4.00
2023-01-29T12:52:55.803Z,4.01
2023-01-29T12:53:55.818Z,4.04
2023-01-29T12:54:55.821Z,4.04
2023-01-29T12:55:55.829Z,4.04
2023-01-29T12:56:55.836Z,4.05
2023-01-29T12:57:55.847Z,4.05
2023-01-29T12:58:55.846Z,4.03
2023-01-29T12:59:55.854Z,4.05
2023-01-29T13:00:55.932Z,4.12
2023-01-29T13:01:55.865Z,4.13
2023-01-29T13:02:55.953Z,4.11
2023-01-29T13:03:55.886Z,4.11
2023-01-29T13:04:55.894Z,4.12
2023-01-29T13:05:55.906Z,4.14
2023-01-29T13:06:55.899Z,4.13
2023-01-29T13:07:55.904Z,4.12
2023-01-29T13:08:55.911Z,4.10
2023-01-29T13:09:55.920Z,4.12
2023-01-29T13:10:55.931Z,4.11
2023-01-29T13:11:55.933Z,4.13
2023-01-29T13:12:55.937Z,4.12
2023-01-29T13:13:55.944Z,4.12
2023-01-29T13:14:55.951Z,4.11
2023-01-29T13:15:55.958Z,4.10
2023-01-29T13:16:55.963Z,4.06
2023-01-29T13:17:55.971Z,4.05
2023-01-29T13:18:55.983Z,4.01
2023-01-29T13:19:55.979Z,4.01
2023-01-29T13:20:55.987Z,4.02
2023-01-29T13:21:55.995Z,4.04
2023-01-29T13:22:56.000Z,4.05
2023-01-29T13:23:56.007Z,4.07
2023-01-29T13:25:04.487Z,4.08
2023-01-29T13:25:56.027Z,4.07
2023-01-29T13:26:56.035Z,4.05
2023-01-29T13:27:56.044Z,4.04
2023-01-29T13:28:56.048Z,4.05
2023-01-29T13:29:56.055Z,4.03
2023-01-29T13:30:56.105Z,4.05
2023-01-29T13:31:56.101Z,4.06
2023-01-29T13:32:56.075Z,4.10
2023-01-29T13:33:56.087Z,4.12
2023-01-29T13:34:56.087Z,4.14
2023-01-29T13:35:56.094Z,4.15